createdAt,value
2017-10-01T00:00:23.276Z,13.14
2017-10-01T00:01:23.211Z,13.17
2017-10-01T00:02:23.242Z,13.14
2017-10-01T00:04:55.791Z,13.15
2017-10-01T00:05:56.628Z,13.15
2017-10-01T00:07:49.166Z,13.11
2017-10-01T00:08:48.078Z,13.03
2017-10-01T00:10:42.255Z,13.14
2017-10-01T00:11:41.909Z,13.11
2017-10-01T00:13:36.319Z,13.02
2017-10-01T00:14:36.808Z,12.99
2017-10-01T00:16:29.927Z,13.04
2017-10-01T00:17:30.389Z,13.00
2017-10-01T00:19:23.118Z,13.00
2017-10-01T00:20:21.985Z,12.99
2017-10-01T00:22:14.953Z,12.97
2017-10-01T00:23:16.356Z,12.99
2017-10-01T00:25:22.935Z,13.02
2017-10-01T00:26:31.628Z,12.97
2017-10-01T00:28:16.838Z,13.03
2017-10-01T00:29:16.235Z,12.97
2017-10-01T00:31:09.150Z,13.04
2017-10-01T00:32:09.501Z,12.97
2017-10-01T00:34:03.399Z,12.97
2017-10-01T00:35:02.427Z,12.95
2017-10-01T00:36:57.206Z,12.87
2017-10-01T00:37:56.688Z,12.85
2017-10-01T00:39:50.554Z,12.87
2017-10-01T00:40:50.013Z,12.84
2017-10-01T00:42:41.906Z,12.79
2017-10-01T00:43:42.381Z,12.78
2017-10-01T00:45:35.321Z,12.78
2017-10-01T00:46:35.658Z,12.71
2017-10-01T00:47:34.802Z,12.69
2017-10-01T00:48:35.327Z,12.69
2017-10-01T00:49:35.664Z,12.62
2017-10-01T00:50:35.679Z,12.67
2017-10-01T00:51:34.655Z,12.64
2017-10-01T00:52:36.164Z,12.62
2017-10-01T00:53:36.140Z,12.64
2017-10-01T00:54:34.579Z,12.62
2017-10-01T00:55:34.526Z,12.59
2017-10-01T00:56:34.237Z,12.59
2017-10-01T00:57:34.035Z,12.62
2017-10-01T00:58:33.942Z,12.56
2017-10-01T00:59:33.966Z,12.48
2017-10-01T01:00:33.921Z,12.51
2017-10-01T01:01:33.900Z,12.51
2017-10-01T01:02:33.856Z,12.51
2017-10-01T01:03:33.786Z,12.48
2017-10-01T01:04:33.772Z,12.48
2017-10-01T01:05:33.725Z,12.44
2017-10-01T01:06:33.677Z,12.45
2017-10-01T01:07:33.623Z,12.52
2017-10-01T01:08:33.678Z,12.44
2017-10-01T01:09:33.581Z,12.46
2017-10-01T01:10:33.500Z,12.46
2017-10-01T01:11:33.497Z,12.48
2017-10-01T01:12:33.432Z,12.46
2017-10-01T01:13:33.410Z,12.44
2017-10-01T01:14:33.430Z,12.48
2017-10-01T01:15:33.335Z,12.49
2017-10-01T01:16:33.366Z,12.42
2017-10-01T01:17:33.314Z,12.46
2017-10-01T01:18:33.199Z,12.41
2017-10-01T01:19:33.232Z,12.45
2017-10-01T01:20:33.149Z,12.46
2017-10-01T01:21:33.124Z,12.48
2017-10-01T01:22:33.108Z,12.49
2017-10-01T01:23:33.036Z,12.45
2017-10-01T01:24:33.019Z,12.46
2017-10-01T01:25:32.982Z,12.33
2017-10-01T01:26:32.954Z,12.38
2017-10-01T01:27:32.924Z,12.45
2017-10-01T01:28:43.415Z,12.34
2017-10-01T01:29:33.816Z,12.33
2017-10-01T01:30:34.699Z,12.39
2017-10-01T01:31:33.769Z,12.27
2017-10-01T01:32:33.168Z,12.29
2017-10-01T01:33:33.144Z,12.34
2017-10-01T01:34:33.619Z,12.31
2017-10-01T01:35:33.043Z,12.37
2017-10-01T01:36:33.558Z,12.29
2017-10-01T01:37:33.475Z,12.31
2017-10-01T01:38:43.275Z,12.33
2017-10-01T01:39:33.422Z,12.31
2017-10-01T01:40:33.732Z,12.29
